createdAt,value
2023-11-19T00:02:23.612Z,98960.00
2023-11-19T00:05:26.542Z,98972.34
2023-11-19T00:08:29.770Z,98977.63
2023-11-19T00:11:32.628Z,98972.31
2023-11-19T00:14:38.496Z,98974.06
2023-11-19T00:17:46.228Z,98970.53
2023-11-19T00:20:49.415Z,98951.03
2023-11-19T00:23:53.315Z,98969.66
2023-11-19T00:26:56.195Z,98967.03
2023-11-19T00:29:59.469Z,98961.72
2023-11-19T00:33:02.280Z,98969.69
2023-11-19T00:36:05.697Z,98976.75
2023-11-19T00:39:08.929Z,98980.31
2023-11-19T00:42:11.954Z,98976.78
2023-11-19T00:45:15.436Z,98963.50
2023-11-19T00:48:18.458Z,98954.66
2023-11-19T00:51:21.603Z,98963.47
2023-11-19T00:54:26.783Z,98963.44
2023-11-19T00:57:29.318Z,98954.66
2023-11-19T01:00:33.620Z,98958.16
2023-11-19T01:03:36.687Z,98965.22
2023-11-19T01:06:49.233Z,98956.44
2023-11-19T01:09:52.311Z,98952.91
2023-11-19T01:12:55.409Z,98944.06
2023-11-19T01:15:58.083Z,98946.69
2023-11-19T01:19:12.346Z,98967.91
2023-11-19T01:22:20.375Z,98964.41
2023-11-19T01:25:23.637Z,98966.16
2023-11-19T01:28:26.429Z,98969.69
2023-11-19T01:31:29.447Z,98959.09
2023-11-19T01:34:32.136Z,98949.41
2023-11-19T01:37:38.197Z,98954.72
2023-11-19T01:40:40.886Z,98958.16
2023-11-19T01:43:43.935Z,98954.66
2023-11-19T01:46:49.413Z,98930.81
2023-11-19T01:49:52.739Z,98942.28
2023-11-19T01:52:56.147Z,98944.91
2023-11-19T01:55:59.611Z,98940.50
2023-11-19T01:59:03.346Z,98932.59
2023-11-19T02:02:07.282Z,98921.09
2023-11-19T02:05:12.452Z,98903.41
2023-11-19T02:08:15.299Z,98909.59
2023-11-19T02:11:18.717Z,98902.53
2023-11-19T02:14:25.493Z,98908.72
2023-11-19T02:17:29.463Z,98913.97
2023-11-19T02:20:32.104Z,98914.81
2023-11-19T02:23:35.312Z,98915.69
2023-11-19T02:26:43.597Z,98910.41
2023-11-19T02:29:46.588Z,98919.22
2023-11-19T02:32:49.441Z,98909.50
2023-11-19T02:35:52.569Z,98906.00
2023-11-19T02:38:56.126Z,98893.66
2023-11-19T02:41:59.342Z,98891.91
2023-11-19T02:45:02.041Z,98897.16
2023-11-19T02:48:07.570Z,98891.03
2023-11-19T02:51:10.938Z,98885.72
2023-11-19T02:54:15.702Z,98881.31
2023-11-19T02:57:23.101Z,98875.13
2023-11-19T03:00:33.482Z,98875.13
2023-11-19T03:03:39.953Z,98854.81
2023-11-19T03:06:42.872Z,98860.09
2023-11-19T03:09:45.657Z,98864.53
2023-11-19T03:12:48.683Z,98863.66
2023-11-19T03:15:52.758Z,98845.09
2023-11-19T03:18:56.247Z,98853.00
2023-11-19T03:22:00.821Z,98849.50
2023-11-19T03:25:04.331Z,98848.66
2023-11-19T03:28:07.728Z,98854.84
2023-11-19T03:31:10.828Z,98839.78
2023-11-19T03:34:13.628Z,98825.66
2023-11-19T03:37:18.657Z,98829.22
2023-11-19T03:40:21.412Z,98851.28
2023-11-19T03:43:24.537Z,98855.66
2023-11-19T03:46:28.567Z,98828.31
2023-11-19T03:49:31.483Z,98815.03
2023-11-19T03:52:44.135Z,98819.50
2023-11-19T03:55:47.745Z,98800.97
2023-11-19T03:58:50.454Z,98799.22
2023-11-19T04:01:54.940Z,98789.50
2023-11-19T04:04:58.208Z,98790.38
2023-11-19T04:08:01.488Z,98789.50
2023-11-19T04:11:05.290Z,98787.75
2023-11-19T04:14:08.193Z,98784.25
2023-11-19T04:17:11.530Z,98772.78
2023-11-19T04:20:15.750Z,98766.59
2023-11-19T04:23:19.179Z,98763.94
2023-11-19T04:26:21.850Z,98771.88
2023-11-19T04:29:24.856Z,98770.12
2023-11-19T04:32:28.319Z,98767.44
2023-11-19T04:35:31.488Z,98750.69
2023-11-19T04:38:34.195Z,98736.53
2023-11-19T04:41:37.778Z,98748.88
2023-11-19T04:44:40.443Z,98755.06
2023-11-19T04:47:46.604Z,98766.50
2023-11-19T04:50:49.334Z,98772.66
2023-11-19T04:53:52.443Z,98770.03
2023-11-19T04:56:55.354Z,98782.37
2023-11-19T04:59:58.371Z,98781.47
2023-11-19T05:03:01.224Z,98771.78
2023-11-19T05:06:04.683Z,98788.56
2023-11-19T05:09:10.316Z,98789.44
2023-11-19T05:12:13.730Z,98779.72
2023-11-19T05:15:16.410Z,98777.09
2023-11-19T05:18:19.611Z,98778.88
2023-11-19T05:21:22.297Z,98782.37
2023-11-19T05:24:25.311Z,98785.91
2023-11-19T05:27:28.242Z,98796.47
2023-11-19T05:30:31.215Z,98784.09
2023-11-19T05:33:33.986Z,98790.28
2023-11-19T05:36:37.056Z,98785.91
2023-11-19T05:39:40.252Z,98739.91
2023-11-19T05:42:43.328Z,98792.09
2023-11-19T05:45:45.999Z,98792.94
2023-11-19T05:48:49.478Z,98795.59
2023-11-19T05:51:52.486Z,98801.75
2023-11-19T05:54:55.443Z,98785.94
2023-11-19T05:57:58.112Z,98788.59
2023-11-19T06:01:02.385Z,98791.25
2023-11-19T06:04:05.959Z,98792.97
2023-11-19T06:07:08.905Z,98800.94
2023-11-19T06:10:12.494Z,98797.41
2023-11-19T06:13:16.726Z,98798.34
2023-11-19T06:16:20.162Z,98794.78
2023-11-19T06:19:23.041Z,98739.12
2023-11-19T06:22:25.927Z,98764.78
2023-11-19T06:25:29.313Z,98746.22
2023-11-19T06:28:33.023Z,98763.03
2023-11-19T06:31:35.718Z,98753.28
2023-11-19T06:34:39.123Z,98762.12
2023-11-19T06:37:43.030Z,98758.59
2023-11-19T06:40:46.601Z,98755.09
2023-11-19T06:43:50.023Z,98744.50
2023-11-19T06:46:52.902Z,98746.25
2023-11-19T06:49:56.351Z,98750.66
2023-11-19T06:53:00.073Z,98742.72
2023-11-19T06:56:07.431Z,98737.44
2023-11-19T06:59:10.658Z,98750.69
2023-11-19T07:02:13.646Z,98741.00
2023-11-19T07:05:16.807Z,98737.47
2023-11-19T07:08:19.631Z,98739.25
2023-11-19T07:11:22.986Z,98730.44
2023-11-19T07:14:25.797Z,98727.75
2023-11-19T07:17:28.816Z,98741.00
2023-11-19T07:20:32.480Z,98748.97
2023-11-19T07:23:35.571Z,98742.78
2023-11-19T07:26:43.651Z,98740.12
2023-11-19T07:29:47.385Z,98755.12
2023-11-19T07:32:50.089Z,98748.06
2023-11-19T07:35:53.060Z,98741.00
2023-11-19T07:38:58.631Z,98746.28
2023-11-19T07:42:01.571Z,98742.75
2023-11-19T07:45:04.656Z,98730.38
2023-11-19T07:48:07.942Z,98732.16
2023-11-19T07:51:12.844Z,98748.91
2023-11-19T07:54:15.764Z,98752.44
2023-11-19T07:57:18.558Z,98762.16
2023-11-19T08:00:21.551Z,98755.09
2023-11-19T08:03:24.980Z,98747.12
2023-11-19T08:06:28.088Z,98730.31
2023-11-19T08:09:31.124Z,98722.34
2023-11-19T08:12:36.415Z,98711.72
2023-11-19T08:15:39.616Z,98717.00
2023-11-19T08:18:45.534Z,98673.72
2023-11-19T08:21:48.569Z,98687.78
2023-11-19T08:24:51.474Z,98678.94
2023-11-19T08:27:54.367Z,98678.94
2023-11-19T08:30:57.092Z,98656.81
2023-11-19T08:33:59.930Z,98654.16
2023-11-19T08:37:02.702Z,98645.28
2023-11-19T08:40:06.263Z,98633.78
2023-11-19T08:43:09.053Z,98622.25
2023-11-19T08:46:12.953Z,98647.91
2023-11-19T08:49:15.877Z,98691.22
2023-11-19T08:52:19.078Z,98676.16
2023-11-19T08:55:21.864Z,98686.78
2023-11-19T08:58:25.030Z,98665.53
2023-11-19T09:01:27.826Z,98681.47
2023-11-19T09:04:30.961Z,98680.50
2023-11-19T09:07:34.025Z,98675.22
2023-11-19T09:10:37.092Z,98657.50
2023-11-19T09:13:39.673Z,98674.28
2023-11-19T09:16:42.679Z,98682.19
2023-11-19T09:19:45.613Z,98685.75
2023-11-19T09:22:48.584Z,98688.34
2023-11-19T09:25:51.345Z,98693.66
2023-11-19T09:28:54.315Z,98696.31
2023-11-19T09:31:57.027Z,98699.84
2023-11-19T09:35:00.172Z,98683.88
2023-11-19T09:38:05.154Z,98680.38
2023-11-19T09:41:10.028Z,98677.72
2023-11-19T09:44:13.244Z,98676.78
2023-11-19T09:47:18.447Z,98669.69
2023-11-19T09:50:21.314Z,98674.94
2023-11-19T09:53:24.893Z,98676.69
2023-11-19T09:56:29.176Z,98654.56
2023-11-19T09:59:33.223Z,98653.69
2023-11-19T10:02:39.086Z,98648.38
2023-11-19T10:05:42.552Z,98628.97
2023-11-19T10:08:45.962Z,98628.03
2023-11-19T10:11:52.406Z,98631.50
2023-11-19T10:14:58.000Z,98630.63
2023-11-19T10:18:01.297Z,98614.69
2023-11-19T10:21:04.728Z,98613.81
2023-11-19T10:24:09.228Z,98615.56
2023-11-19T10:27:12.336Z,98611.13
2023-11-19T10:30:22.138Z,98606.63
2023-11-19T10:33:24.773Z,98612.00
2023-11-19T10:36:44.836Z,98620.00
2023-11-19T10:39:57.523Z,98623.44
2023-11-19T10:43:04.794Z,98618.09
2023-11-19T10:46:12.015Z,98626.09
2023-11-19T10:49:15.070Z,98618.12
2023-11-19T10:52:21.626Z,98597.87
2023-11-19T10:55:28.610Z,98618.19
2023-11-19T10:58:33.716Z,98614.59
2023-11-19T11:01:43.400Z,98612.81
2023-11-19T11:04:48.803Z,98597.69
2023-11-19T11:07:53.708Z,98580.81
2023-11-19T11:10:58.236Z,98572.00
2023-11-19T11:14:03.296Z,98573.78
2023-11-19T11:17:09.056Z,98556.91
2023-11-19T11:20:12.502Z,98559.59
2023-11-19T11:23:33.907Z,98528.78
2023-11-19T11:27:05.492Z,98560.63
2023-11-19T11:30:35.764Z,98552.66
2023-11-19T11:34:11.443Z,98538.50
2023-11-19T11:37:25.000Z,98546.56
2023-11-19T11:40:27.990Z,98549.12
2023-11-19T11:43:49.682Z,98528.84
2023-11-19T11:46:56.270Z,98547.31
2023-11-19T11:50:08.098Z,98529.56
2023-11-19T11:53:18.592Z,98528.69
2023-11-19T11:56:21.276Z,98510.91
2023-11-19T11:59:25.181Z,98514.37
2023-11-19T12:02:28.114Z,98503.00
2023-11-19T12:05:31.852Z,98494.09
2023-11-19T12:12:29.524Z,98487.03
2023-11-19T12:15:32.494Z,98477.19
2023-11-19T12:18:36.261Z,98472.81
2023-11-19T12:21:39.394Z,98471.84
2023-11-19T12:24:42.498Z,98462.94
2023-11-19T12:27:47.449Z,98468.97
2023-11-19T12:30:50.751Z,98470.59
2023-11-19T12:33:54.236Z,98451.06
2023-11-19T12:36:57.723Z,98454.47
2023-11-19T12:40:00.723Z,98456.16
2023-11-19T12:43:04.060Z,98444.69
2023-11-19T12:46:25.357Z,98438.37
2023-11-19T12:49:28.756Z,98420.63
2023-11-19T12:52:31.954Z,98426.78
2023-11-19T12:55:35.050Z,98417.03
2023-11-19T12:58:38.020Z,98403.72
2023-11-19T13:01:42.663Z,98413.53
2023-11-19T13:04:45.418Z,98407.37
2023-11-19T13:07:48.461Z,98407.44
2023-11-19T13:10:52.001Z,98388.97
2023-11-19T13:14:00.668Z,98375.72
2023-11-19T13:17:03.666Z,98370.50
2023-11-19T13:20:08.273Z,98369.75
2023-11-19T13:23:16.613Z,98372.38
2023-11-19T13:26:20.330Z,98374.16
2023-11-19T13:29:23.045Z,98375.03
2023-11-19T13:32:26.234Z,98385.50
2023-11-19T13:35:29.374Z,98386.44
2023-11-19T13:38:33.919Z,98385.59
2023-11-19T13:41:36.819Z,98395.41
2023-11-19T13:44:39.909Z,98374.25
2023-11-19T13:47:44.185Z,98380.38
2023-11-19T13:50:47.237Z,98390.06
2023-11-19T13:53:52.577Z,98381.28
2023-11-19T13:56:59.509Z,98396.25
2023-11-19T14:00:12.241Z,98395.31
2023-11-19T14:03:15.500Z,98389.12
2023-11-19T14:06:18.554Z,98376.69
2023-11-19T14:09:22.282Z,98381.16
2023-11-19T14:12:25.021Z,98363.47
2023-11-19T14:15:28.235Z,98368.72
2023-11-19T14:18:31.168Z,98358.19
2023-11-19T14:21:34.253Z,98352.81
2023-11-19T14:24:37.135Z,98364.31
2023-11-19T14:27:41.497Z,98366.22
2023-11-19T14:30:46.134Z,98374.97
2023-11-19T14:33:50.627Z,98380.31
2023-11-19T14:36:55.072Z,98363.53
2023-11-19T14:39:58.984Z,98357.41
2023-11-19T14:43:01.998Z,98345.94
2023-11-19T14:46:05.731Z,98334.38
2023-11-19T14:49:09.075Z,98339.78
2023-11-19T14:55:17.921Z,98353.03
2023-11-19T14:58:20.867Z,98356.59
2023-11-19T15:01:23.815Z,98362.69
2023-11-19T15:04:27.099Z,98362.78
2023-11-19T15:07:30.118Z,98356.50
2023-11-19T15:10:33.001Z,98356.53
2023-11-19T15:13:38.734Z,98353.84
2023-11-19T15:16:42.321Z,98353.09
2023-11-19T15:19:47.061Z,98364.50
2023-11-19T15:22:50.898Z,98353.81
2023-11-19T15:25:53.771Z,98362.66
2023-11-19T15:28:58.905Z,98360.91
2023-11-19T15:32:02.135Z,98354.69
2023-11-19T15:35:05.641Z,98360.84
2023-11-19T15:38:10.796Z,98352.81
2023-11-19T15:41:14.112Z,98366.09
2023-11-19T15:44:18.562Z,98381.09
2023-11-19T15:47:22.600Z,98369.66
2023-11-19T15:50:25.501Z,98359.94
2023-11-19T15:53:28.893Z,98348.47
2023-11-19T15:56:32.226Z,98331.72
2023-11-19T15:59:35.336Z,98338.75
2023-11-19T16:02:38.502Z,98350.22
2023-11-19T16:05:42.228Z,98351.06
2023-11-19T16:08:45.355Z,98352.00
2023-11-19T16:11:54.547Z,98352.81
2023-11-19T16:14:59.341Z,98350.06
2023-11-19T16:18:02.560Z,98346.47
2023-11-19T16:21:05.875Z,98348.22
2023-11-19T16:24:10.236Z,98351.75
2023-11-19T16:30:21.769Z,98368.53
2023-11-19T16:33:30.702Z,98365.88
2023-11-19T16:36:35.120Z,98365.06
2023-11-19T16:39:37.825Z,98354.44
2023-11-19T16:42:41.677Z,98340.75
2023-11-19T16:45:44.389Z,98343.28
2023-11-19T16:48:49.414Z,98329.94
2023-11-19T16:51:52.576Z,98332.09
2023-11-19T16:54:58.914Z,98324.44
2023-11-19T16:58:03.300Z,98327.50
2023-11-19T17:01:06.764Z,98324.03
2023-11-19T17:04:10.878Z,98325.91
2023-11-19T17:07:13.884Z,98319.72
2023-11-19T17:10:16.682Z,98329.53
2023-11-19T17:13:23.109Z,98334.06
2023-11-19T17:16:27.540Z,98316.34
2023-11-19T17:19:30.664Z,98309.31
2023-11-19T17:22:37.529Z,98307.53
2023-11-19T17:25:42.235Z,98311.19
2023-11-19T17:28:45.489Z,98288.22
2023-11-19T17:31:48.770Z,98275.06
2023-11-19T17:34:52.192Z,98261.88
2023-11-19T17:37:56.114Z,98254.91
2023-11-19T17:40:59.065Z,98259.41
2023-11-19T17:44:02.419Z,98252.38
2023-11-19T17:47:05.805Z,98255.94
2023-11-19T17:53:16.194Z,98261.22
2023-11-19T17:56:19.555Z,98270.13
2023-11-19T17:59:25.935Z,98257.56
2023-11-19T18:05:36.088Z,98284.03
2023-11-19T18:08:39.475Z,98272.34
2023-11-19T18:11:42.908Z,98279.44
2023-11-19T18:17:52.116Z,98274.03
2023-11-19T18:20:55.423Z,98273.78
2023-11-19T18:23:58.250Z,98260.84
2023-11-19T18:27:01.981Z,98258.63
2023-11-19T18:30:11.659Z,98268.66
2023-11-19T18:33:16.817Z,98278.63
2023-11-19T18:36:20.074Z,98271.69
2023-11-19T18:39:23.262Z,98270.78
2023-11-19T18:42:27.028Z,98274.31
2023-11-19T18:45:30.069Z,98259.22
2023-11-19T18:48:33.701Z,98240.72
2023-11-19T18:51:37.051Z,98239.87
2023-11-19T18:54:41.452Z,98239.06
2023-11-19T18:57:44.991Z,98212.03
2023-11-19T19:00:48.575Z,98226.06
2023-11-19T19:03:51.898Z,98228.69
2023-11-19T19:06:55.238Z,98206.56
2023-11-19T19:09:58.861Z,98179.41
2023-11-19T19:13:03.625Z,98218.56
2023-11-19T19:16:08.816Z,98218.16
2023-11-19T19:19:12.153Z,98212.28
2023-11-19T19:22:15.037Z,98211.84
2023-11-19T19:25:18.149Z,98211.22
2023-11-19T19:28:22.992Z,98190.06
2023-11-19T19:31:28.399Z,98193.69
2023-11-19T19:34:31.456Z,98193.72
2023-11-19T19:37:35.411Z,98190.50
2023-11-19T19:40:38.274Z,98207.22
2023-11-19T19:43:41.735Z,98193.06
2023-11-19T19:46:46.946Z,98194.00
2023-11-19T19:49:51.280Z,98202.03
2023-11-19T19:52:56.384Z,98208.41
2023-11-19T19:56:00.549Z,98209.41
2023-11-19T19:59:04.671Z,98198.94
2023-11-19T20:02:08.277Z,98208.63
2023-11-19T20:05:14.881Z,98223.81
2023-11-19T20:08:17.720Z,98223.81
2023-11-19T20:11:21.153Z,98238.97
2023-11-19T20:14:26.146Z,98222.12
2023-11-19T20:17:29.706Z,98208.75
2023-11-19T20:20:34.115Z,98238.00
2023-11-19T20:23:37.440Z,98250.44
2023-11-19T20:26:41.831Z,98229.22
2023-11-19T20:29:48.249Z,98229.16
2023-11-19T20:32:50.802Z,98238.84
2023-11-19T20:35:56.496Z,98243.25
2023-11-19T20:38:59.146Z,98233.41
2023-11-19T20:42:05.614Z,98236.88
2023-11-19T20:45:12.965Z,98231.56
2023-11-19T20:48:16.129Z,98213.81
2023-11-19T20:51:23.051Z,98211.97
2023-11-19T20:57:34.527Z,98199.66
2023-11-19T21:00:38.519Z,98235.00
2023-11-19T21:03:41.343Z,98223.53
2023-11-19T21:09:53.986Z,98221.03
2023-11-19T21:12:56.950Z,98219.28
2023-11-19T21:16:02.308Z,98161.34
2023-11-19T21:19:05.602Z,98219.22
2023-11-19T21:22:08.752Z,98205.91
2023-11-19T21:25:14.674Z,98201.47
2023-11-19T21:28:17.319Z,98197.13
2023-11-19T21:31:20.419Z,98212.09
2023-11-19T21:34:24.471Z,98205.81
2023-11-19T21:37:28.384Z,98189.97
2023-11-19T21:40:31.130Z,98178.50
2023-11-19T21:43:34.510Z,98197.78
2023-11-19T21:46:37.112Z,98200.38
2023-11-19T21:49:42.221Z,98187.13
2023-11-19T21:52:44.862Z,98211.97
2023-11-19T21:55:47.957Z,98211.94
2023-11-19T21:58:50.553Z,98210.13
2023-11-19T22:01:54.000Z,98208.31
2023-11-19T22:04:57.003Z,98202.97
2023-11-19T22:08:18.151Z,98208.34
2023-11-19T22:11:25.128Z,98208.34
2023-11-19T22:14:28.718Z,98196.94
2023-11-19T22:17:35.905Z,98204.81
2023-11-19T22:20:39.103Z,98219.91
2023-11-19T22:23:42.238Z,98211.00
2023-11-19T22:26:44.813Z,98211.88
2023-11-19T22:29:47.759Z,98211.00
2023-11-19T22:32:50.793Z,98199.44
2023-11-19T22:35:53.696Z,98181.72
2023-11-19T22:38:57.657Z,98180.84
2023-11-19T22:42:00.656Z,98181.59
2023-11-19T22:45:03.796Z,98164.81
2023-11-19T22:48:06.932Z,98162.16
2023-11-19T22:51:10.021Z,98156.06
2023-11-19T22:54:13.441Z,98133.03
2023-11-19T22:57:16.085Z,98138.34
2023-11-19T23:00:28.867Z,98148.19
2023-11-19T23:03:33.451Z,98164.44
2023-11-19T23:06:36.410Z,98166.25
2023-11-19T23:09:42.152Z,98165.41
2023-11-19T23:12:46.054Z,98179.59
2023-11-19T23:15:48.903Z,98174.28
2023-11-19T23:18:55.820Z,98179.50
2023-11-19T23:21:58.807Z,98196.25
2023-11-19T23:25:01.747Z,98199.72
2023-11-19T23:28:05.818Z,98201.44
2023-11-19T23:31:10.818Z,98203.19
2023-11-19T23:34:13.458Z,98192.56
2023-11-19T23:37:16.738Z,98193.47
2023-11-19T23:40:19.905Z,98187.25
2023-11-19T23:43:23.044Z,98178.38
2023-11-19T23:46:25.832Z,98165.13
2023-11-19T23:49:32.205Z,98173.16
2023-11-19T23:52:34.918Z,98154.50
2023-11-19T23:55:37.879Z,98145.78
2023-11-19T23:58:40.845Z,98130.72
